ETNS

Schleswig Airport

Germany
METAR ETNS 201420Z 08011KT 9999 FEW028 04/M04 Q1022 BLU+BLU+
Observed Flight Rules
Feb-20 @ 14:20 UTC (5 hours ago) Visual Flight Rules
Wind Visibility Clouds
80° at 11 knots 10,000+ meters
  • Few at 2,800' AGL
Temperatures Readings
Current 4°C / 39°F
Dewpoint -4°C / 25°F
Humidity 56%
Altimeter 30.18" Hg
Pressure 1022 hPa
Elevation 25
METAR ETNS 201420Z 08011KT 9999 FEW028 04/M04 Q1022 BLU+BLU+
Observed Flight Rules
Feb-20 @ 14:20 UTC
(5 hours ago)
VFR
Wind Visibility
80° at 11 knots 10,000+ meters
Clouds
  • Few at 2,800' AGL
Temperature Dewpoint
4°C / 39°F -4°C / 25°F
Humidity Altimeter Pressure
56% 30.18" Hg 1022 hPa